Terminal Aerodrome Forecast
Issued by NWS

Home | Current Version | Previous Version | Text Only | Print | Product List | Glossary Off
Versions: 1 2 3 4 5 6 7 8 9 10 11 12 13 14 15 16 17 18 19 20 21 22 23 24 25

000
FTUS43 KFGF 080522
TAFBJI
TAF
KBJI 080522Z 0806/0906 31009KT P6SM OVC011
     FM081800 27009KT 5SM -SN OVC008
     FM082000 28013G18KT 2SM -SN BKN008
     FM082200 30017G25KT 1SM -SN BKN015
     FM090300 32015KT P6SM BKN020=

USA.gov is the U.S. government's official web portal to all federal, state and local government web resources and services.